Terminal Aerodrome Forecast
Issued by NWS

Home | Current Version | Previous Version | Graphics & Text | Print | Product List | Glossary Off
Versions: 1 2 3 4 5 6 7 8 9 10 11 12 13 14 15 16 17 18 19 20 21 22 23 24 25

000
FTUS43 KDDC 300520
TAFGCK
TAF
KGCK 300520Z 3006/3106 03005KT 6SM BR OVC060
     FM301000 35005KT 3SM BR OVC040CB
      TEMPO 3010/3014 1SM BR OVC007CB
     FM301600 VRB03KT P6SM BKN100 PROB30 3016/3017 4SM -TSRA
      OVC040CB
     FM302000 00000KT P6SM VCTS BKN060CB=

USA.gov is the U.S. government's official web portal to all federal, state and local government web resources and services.